Akeley, Minnesota
Current Conditions -  °F | °C
As of 3:35 PM on Thursday 23 Oct 2014 (Local Time) from KY49 Reporting Station
Clear Clear  
Wind Chill: 18°   Ceiling: Unl
Heat Index: 18°   Visibility: 10mi
Dew Point:   Wind: 10mph
Humidity: 45%   Direction: 200°SSW
Pressure: 29.88"   Gusts: NA
Location:  47°N, 94.73°W
Report Text: KY49 232035Z AUTO 20009KT 10SM CLR 18/06 A2988 RMK AO2 T01830061
Loading
Personal Weather Stations






























Interactive Weather Map
Tropical Storm Tracking
New forecast layout! Learn more

10-Day Weather Forecast

Advertisements
Track Severe Weather on mobile